Time;durP1;ratioP1;P1;durP2;ratioP2;P2;SDS_P1;SDS_P2;PMS_P1;PMS_P2;Temp;Humidity;BMP_temperature;BMP_pressure;BME280_temperature;BME280_humidity;BME280_pressure;Samples;Min_cycle;Max_cycle;Signal;HPM_P1;HPM_P2
2023/03/01 00:01:14;;;;;;;;;;;;;;;3.10;45.46;101864.41;4987294;28;6986;-75
2023/03/01 00:03:40;;;;;;;;;;;;;;;3.07;45.08;101855.59;5008824;28;6792;-74
2023/03/01 00:06:06;;;;;;;;;;;;;;;3.05;46.15;101863.03;4995458;28;6983;-75
2023/03/01 00:08:33;;;;;;;;;;;;;;;3.01;46.07;101864.34;4984136;28;7238;-74
2023/03/01 00:11:20;;;;;;;;;;;;;;;2.98;46.08;101868.22;5009641;28;6803;-74
2023/03/01 00:13:48;;;;;;;;;;;;;;;2.90;45.27;101873.41;4985645;28;6997;-74
2023/03/01 00:16:22;;;;;;;;;;;;;;;2.85;45.57;101878.72;4990845;28;6942;-74
2023/03/01 00:18:48;;;;;;;;;;;;;;;2.81;46.49;101882.59;4995265;28;6800;-74
2023/03/01 00:21:14;;;;;;;;;;;;;;;2.79;46.09;101884.06;4990116;28;7248;-74
2023/03/01 00:23:40;;;;;;;;;;;;;;;2.81;46.30;101885.13;4989852;28;6850;-74
2023/03/01 00:26:09;;;;;;;;;;;;;;;2.81;46.59;101890.19;4995231;28;6968;-74
2023/03/01 00:28:35;;;;;;;;;;;;;;;2.83;46.44;101890.34;4986255;28;6986;-74
2023/03/01 00:31:19;;;;;;;;;;;;;;;2.83;46.47;101881.13;4993268;28;7006;-74
2023/03/01 00:33:45;;;;;;;;;;;;;;;2.83;47.09;101880.19;4992772;28;7260;-74
2023/03/01 00:36:14;;;;;;;;;;;;;;;2.83;47.03;101887.81;4999505;28;6983;-74
2023/03/01 00:38:44;;;;;;;;;;;;;;;2.81;46.83;101889.28;4992552;28;7097;-74
2023/03/01 00:41:16;;;;;;;;;;;;;;;2.76;46.12;101884.66;4995042;28;6867;-74
2023/03/01 00:43:43;;;;;;;;;;;;;;;2.73;46.04;101883.44;4992058;28;6951;-74
2023/03/01 00:46:14;;;;;;;;;;;;;;;2.67;46.49;101871.03;4998770;28;6791;-74
2023/03/01 00:48:40;;;;;;;;;;;;;;;2.62;45.90;101873.09;4995126;28;7107;-74
2023/03/01 00:51:23;;;;;;;;;;;;;;;2.56;45.89;101869.00;4995649;28;7214;-74
2023/03/01 00:53:53;;;;;;;;;;;;;;;2.49;46.90;101865.84;5001917;28;6808;-74
2023/03/01 00:56:20;;;;;;;;;;;;;;;2.47;46.51;101871.50;5001715;28;6850;-74
2023/03/01 00:58:46;;;;;;;;;;;;;;;2.43;47.13;101874.47;5001926;28;6795;-74
2023/03/01 01:01:19;;;;;;;;;;;;;;;2.40;46.66;101867.44;5009933;28;7196;-74
2023/03/01 01:03:54;;;;;;;;;;;;;;;2.37;46.48;101862.06;5007408;28;7098;-75
2023/03/01 01:06:34;;;;;;;;;;;;;;;2.34;46.91;101875.28;4990259;28;6816;-74
2023/03/01 01:09:01;;;;;;;;;;;;;;;2.32;46.98;101864.09;4995422;28;6816;-75
2023/03/01 01:11:28;;;;;;;;;;;;;;;2.29;47.08;101866.28;5003969;28;7244;-74
2023/03/01 01:13:55;;;;;;;;;;;;;;;2.28;47.30;101854.38;4996803;28;6792;-74
2023/03/01 01:16:26;;;;;;;;;;;;;;;2.25;47.34;101856.59;4999165;28;6925;-74
2023/03/01 01:18:52;;;;;;;;;;;;;;;2.21;47.07;101852.84;4992802;28;7208;-74
2023/03/01 01:21:21;;;;;;;;;;;;;;;2.16;47.19;101851.47;4992482;28;7231;-74
2023/03/01 01:23:47;;;;;;;;;;;;;;;2.11;47.40;101845.03;5000209;28;7165;-75
2023/03/01 01:26:33;;;;;;;;;;;;;;;2.07;47.09;101843.81;4997297;28;6860;-74
2023/03/01 01:29:00;;;;;;;;;;;;;;;2.01;47.77;101840.63;4996707;28;7885;-74
2023/03/01 01:31:28;;;;;;;;;;;;;;;2.00;47.61;101841.34;4996766;28;6946;-74
2023/03/01 01:33:55;;;;;;;;;;;;;;;1.98;47.12;101839.41;4997694;28;7732;-74
2023/03/01 01:36:22;;;;;;;;;;;;;;;1.94;47.49;101835.69;5001812;28;7169;-74
2023/03/01 01:38:48;;;;;;;;;;;;;;;1.92;47.89;101839.66;4995576;28;6804;-74
2023/03/01 01:41:14;;;;;;;;;;;;;;;1.86;47.73;101827.25;4996418;28;7712;-74
2023/03/01 01:43:45;;;;;;;;;;;;;;;1.84;47.88;101827.84;4987916;28;7063;-74
2023/03/01 01:46:33;;;;;;;;;;;;;;;1.80;47.84;101817.38;4997569;28;7010;-75
2023/03/01 01:49:17;;;;;;;;;;;;;;;1.78;47.80;101818.88;4993847;28;7303;-74
2023/03/01 01:51:48;;;;;;;;;;;;;;;1.76;48.07;101815.28;4995069;28;7004;-74
2023/03/01 01:54:27;;;;;;;;;;;;;;;1.74;47.67;101810.78;4997015;28;7083;-74
2023/03/01 01:57:02;;;;;;;;;;;;;;;1.71;47.62;101802.91;5009035;28;6815;-75
2023/03/01 01:59:31;;;;;;;;;;;;;;;1.69;47.95;101805.25;5001070;28;7199;-74
2023/03/01 02:02:03;;;;;;;;;;;;;;;1.68;47.94;101808.50;4997084;28;6788;-74
2023/03/01 02:04:32;;;;;;;;;;;;;;;1.65;48.32;101800.63;4991076;28;6931;-74
2023/03/01 02:07:09;;;;;;;;;;;;;;;1.64;47.86;101793.75;4989112;28;7060;-74
2023/03/01 02:09:36;;;;;;;;;;;;;;;1.62;48.02;101790.16;4997741;28;7027;-74
2023/03/01 02:12:02;;;;;;;;;;;;;;;1.61;48.40;101784.22;4996557;28;7175;-74
2023/03/01 02:14:28;;;;;;;;;;;;;;;1.61;48.19;101785.84;4994047;28;8656;-74
2023/03/01 02:16:54;;;;;;;;;;;;;;;1.61;48.29;101785.84;4989508;28;6856;-74
2023/03/01 02:20:00;;;;;;;;;;;;;;;1.58;47.88;101780.47;4993633;28;6768;-75
2023/03/01 02:22:32;;;;;;;;;;;;;;;1.52;47.77;101780.72;4994056;28;6820;-74
2023/03/01 02:25:09;;;;;;;;;;;;;;;1.47;48.26;101777.69;4994461;28;6808;-75
2023/03/01 02:28:18;;;;;;;;;;;;;;;1.43;47.84;101772.16;5008640;28;7192;-74
2023/03/01 02:33:38;;;;;;;;;;;;;;;1.31;48.25;101777.69;5005779;28;6796;-74
2023/03/01 02:36:13;;;;;;;;;;;;;;;1.29;48.72;101774.06;4994821;28;6816;-74
2023/03/01 02:38:40;;;;;;;;;;;;;;;1.31;48.44;101781.84;4990529;28;6979;-75
2023/03/01 02:41:10;;;;;;;;;;;;;;;1.30;48.51;101775.88;5000901;28;7148;-74
2023/03/01 02:43:36;;;;;;;;;;;;;;;1.29;48.92;101778.25;4997838;28;6800;-75
2023/03/01 02:46:17;;;;;;;;;;;;;;;1.29;48.83;101783.31;4996558;28;6868;-75
2023/03/01 02:48:48;;;;;;;;;;;;;;;1.30;48.79;101780.91;4995841;28;7031;-74
2023/03/01 02:51:31;;;;;;;;;;;;;;;1.34;49.09;101782.16;4977912;28;6869;-75
2023/03/01 02:54:25;;;;;;;;;;;;;;;1.36;49.52;101780.72;5008864;28;7181;-75
2023/03/01 02:56:52;;;;;;;;;;;;;;;1.39;49.38;101791.13;4998124;28;6889;-75
2023/03/01 02:59:24;;;;;;;;;;;;;;;1.41;49.37;101794.72;4988218;28;7264;-75
2023/03/01 03:01:50;;;;;;;;;;;;;;;1.41;49.25;101798.91;4994361;28;7411;-75
2023/03/01 03:04:20;;;;;;;;;;;;;;;1.39;49.53;101788.59;4986602;28;7190;-75
2023/03/01 03:06:49;;;;;;;;;;;;;;;1.40;49.21;101787.88;5007667;28;7005;-75
2023/03/01 03:09:16;;;;;;;;;;;;;;;1.41;49.48;101774.50;5008365;28;7290;-74
2023/03/01 03:11:43;;;;;;;;;;;;;;;1.45;49.79;101781.69;4992283;28;7105;-74
2023/03/01 03:14:14;;;;;;;;;;;;;;;1.45;49.71;101771.59;4992078;28;7187;-75
2023/03/01 03:16:46;;;;;;;;;;;;;;;1.48;49.09;101769.38;4993464;28;8781;-74
2023/03/01 03:19:13;;;;;;;;;;;;;;;1.49;48.94;101780.38;5010013;28;7198;-75
2023/03/01 03:21:39;;;;;;;;;;;;;;;1.49;49.88;101776.22;4996652;28;6884;-75
2023/03/01 03:24:05;;;;;;;;;;;;;;;1.50;49.31;101770.44;4969506;28;6946;-75
2023/03/01 03:26:31;;;;;;;;;;;;;;;1.48;49.37;101766.84;4992351;28;6776;-75
2023/03/01 03:28:57;;;;;;;;;;;;;;;1.44;49.21;101764.72;4991709;28;7007;-75
2023/03/01 03:31:23;;;;;;;;;;;;;;;1.39;49.11;101766.75;4991509;28;6767;-74
2023/03/01 03:33:49;;;;;;;;;;;;;;;1.32;49.09;101759.28;4991068;28;6768;-75
2023/03/01 03:36:23;;;;;;;;;;;;;;;1.25;49.20;101764.38;4994302;28;7626;-75
2023/03/01 03:38:49;;;;;;;;;;;;;;;1.19;48.85;101762.09;4996147;28;7270;-75
2023/03/01 03:41:16;;;;;;;;;;;;;;;1.12;49.01;101763.81;4992379;28;7601;-73
2023/03/01 03:43:43;;;;;;;;;;;;;;;1.06;48.76;101764.03;4996611;28;6978;-73
2023/03/01 03:46:11;;;;;;;;;;;;;;;0.98;48.78;101763.19;4991107;28;6799;-74
2023/03/01 03:48:44;;;;;;;;;;;;;;;0.92;48.86;101771.00;4996780;28;6800;-72
2023/03/01 03:51:12;;;;;;;;;;;;;;;0.87;49.47;101762.06;4994208;28;6799;-72
2023/03/01 03:53:38;;;;;;;;;;;;;;;0.82;48.83;101766.59;4985127;28;7010;-74
2023/03/01 03:56:04;;;;;;;;;;;;;;;0.78;49.41;101769.50;4992800;28;6852;-72
2023/03/01 03:58:30;;;;;;;;;;;;;;;0.77;49.34;101756.69;4994163;28;6824;-72
2023/03/01 04:00:57;;;;;;;;;;;;;;;0.78;49.89;101758.53;4994817;28;7793;-73
2023/03/01 04:03:25;;;;;;;;;;;;;;;0.80;50.05;101760.47;4991361;28;7234;-72
2023/03/01 04:05:52;;;;;;;;;;;;;;;0.85;50.26;101752.50;5006998;28;6800;-74
2023/03/01 04:08:21;;;;;;;;;;;;;;;0.86;50.22;101761.88;4990776;28;6888;-72
2023/03/01 04:10:51;;;;;;;;;;;;;;;0.87;50.35;101756.09;4996761;28;7295;-72
2023/03/01 04:13:22;;;;;;;;;;;;;;;0.88;50.26;101758.81;5001438;28;7701;-72
2023/03/01 04:15:54;;;;;;;;;;;;;;;0.90;50.15;101748.84;4997959;28;6803;-73
2023/03/01 04:18:24;;;;;;;;;;;;;;;0.91;50.41;101740.53;4990721;28;6864;-74
2023/03/01 04:20:52;;;;;;;;;;;;;;;0.92;50.36;101739.84;4990522;28;6984;-74
2023/03/01 04:23:20;;;;;;;;;;;;;;;0.93;50.40;101734.06;4988653;28;6973;-72
2023/03/01 04:25:55;;;;;;;;;;;;;;;0.94;50.37;101734.19;5006043;28;6799;-72
2023/03/01 04:28:37;;;;;;;;;;;;;;;0.92;50.38;101728.09;4992196;28;7012;-73
2023/03/01 04:31:13;;;;;;;;;;;;;;;0.92;50.29;101728.09;4994320;28;9451;-73
2023/03/01 04:33:53;;;;;;;;;;;;;;;0.90;50.21;101716.94;4990969;28;6821;-74
2023/03/01 04:36:23;;;;;;;;;;;;;;;0.88;50.33;101720.03;4988678;28;12385;-73
2023/03/01 04:38:49;;;;;;;;;;;;;;;0.86;50.43;101718.97;5016060;28;6824;-74
2023/03/01 04:41:18;;;;;;;;;;;;;;;0.84;50.46;101718.78;5011606;28;6801;-76
2023/03/01 04:43:45;;;;;;;;;;;;;;;0.85;50.22;101714.66;5006622;28;7084;-73
2023/03/01 04:46:16;;;;;;;;;;;;;;;0.81;50.31;101713.41;5013667;28;6791;-73
2023/03/01 04:48:44;;;;;;;;;;;;;;;0.81;50.62;101708.38;5015861;28;7225;-72
2023/03/01 04:51:13;;;;;;;;;;;;;;;0.80;50.79;101711.63;5014290;28;6788;-73
2023/03/01 04:53:40;;;;;;;;;;;;;;;0.78;50.64;101708.03;5016962;28;7259;-72
2023/03/01 04:56:06;;;;;;;;;;;;;;;0.76;50.54;101712.00;5012641;28;6799;-73
2023/03/01 04:58:32;;;;;;;;;;;;;;;0.74;50.43;101708.44;5028254;28;6823;-75
2023/03/01 05:00:57;;;;;;;;;;;;;;;0.73;50.48;101711.69;5009375;28;7216;-73
2023/03/01 05:03:24;;;;;;;;;;;;;;;0.70;50.47;101709.72;5025847;28;7339;-74
2023/03/01 05:05:52;;;;;;;;;;;;;;;0.67;50.51;101709.41;5011898;28;7078;-73
2023/03/01 05:08:18;;;;;;;;;;;;;;;0.63;50.69;101717.34;5012782;28;6807;-72
2023/03/01 05:10:52;;;;;;;;;;;;;;;0.60;50.70;101720.44;5010669;28;6808;-73
2023/03/01 05:13:23;;;;;;;;;;;;;;;0.57;50.53;101719.22;5010208;28;7338;-74
2023/03/01 05:15:56;;;;;;;;;;;;;;;0.54;50.82;101720.69;5014196;28;6973;-74
2023/03/01 05:18:25;;;;;;;;;;;;;;;0.53;50.92;101723.03;5014258;28;7234;-74
2023/03/01 05:21:01;;;;;;;;;;;;;;;0.51;50.77;101706.84;5016050;28;7200;-72
2023/03/01 05:23:26;;;;;;;;;;;;;;;0.50;50.84;101707.56;5026559;28;6977;-74
2023/03/01 05:25:52;;;;;;;;;;;;;;;0.50;50.62;101708.44;5031840;28;7867;-74
2023/03/01 05:28:20;;;;;;;;;;;;;;;0.49;50.83;101695.69;5012840;28;7151;-73
2023/03/01 05:30:46;;;;;;;;;;;;;;;0.49;51.14;101700.72;5030137;28;7043;-73
2023/03/01 05:33:15;;;;;;;;;;;;;;;0.50;50.84;101697.47;5013660;28;6804;-73
2023/03/01 05:35:43;;;;;;;;;;;;;;;0.50;51.17;101702.50;5016936;28;6803;-73
2023/03/01 05:38:13;;;;;;;;;;;;;;;0.50;50.96;101703.41;5016121;28;6804;-73
2023/03/01 05:40:40;;;;;;;;;;;;;;;0.49;51.05;101708.28;5029011;28;6995;-74
2023/03/01 05:43:07;;;;;;;;;;;;;;;0.47;51.22;101702.16;5013937;28;7220;-72
2023/03/01 05:45:35;;;;;;;;;;;;;;;0.45;50.87;101711.19;5015680;28;6863;-73
2023/03/01 05:48:00;;;;;;;;;;;;;;;0.41;51.08;101712.47;4998642;28;6968;-72
2023/03/01 05:50:29;;;;;;;;;;;;;;;0.38;51.01;101713.03;5012783;28;6788;-75
2023/03/01 05:53:14;;;;;;;;;;;;;;;0.36;51.04;101717.03;5014851;28;6788;-73
2023/03/01 05:55:42;;;;;;;;;;;;;;;0.34;51.21;101715.97;5011880;28;7270;-73
2023/03/01 05:58:16;;;;;;;;;;;;;;;0.33;50.93;101716.69;5009832;28;7680;-72
2023/03/01 06:00:47;;;;;;;;;;;;;;;0.31;50.85;101710.59;4998519;28;7368;-73
2023/03/01 06:03:16;;;;;;;;;;;;;;;0.30;51.45;101713.84;5030229;28;6796;-73
2023/03/01 06:05:43;;;;;;;;;;;;;;;0.30;51.40;101706.28;5012725;28;6968;-74
2023/03/01 06:08:10;;;;;;;;;;;;;;;0.31;51.17;101702.09;5018412;28;6803;-72
2023/03/01 06:10:36;;;;;;;;;;;;;;;0.30;51.65;101705.38;5012549;28;6819;-73
2023/03/01 06:13:02;;;;;;;;;;;;;;;0.31;51.31;101700.50;5017173;28;6974;-73
2023/03/01 06:15:28;;;;;;;;;;;;;;;0.29;51.58;101707.00;5015843;28;7177;-72
2023/03/01 06:17:56;;;;;;;;;;;;;;;0.29;51.32;101696.00;5011707;28;6917;-73
2023/03/01 06:20:25;;;;;;;;;;;;;;;0.28;51.38;101697.63;5014868;28;6800;-73
2023/03/01 06:22:51;;;;;;;;;;;;;;;0.29;51.49;101696.00;5025257;28;7035;-73
2023/03/01 06:25:21;;;;;;;;;;;;;;;0.29;51.49;101707.00;5008869;28;6784;-73
2023/03/01 06:27:48;;;;;;;;;;;;;;;0.30;51.40;101705.38;5012980;28;7292;-74
2023/03/01 06:30:18;;;;;;;;;;;;;;;0.30;51.54;101711.31;5001748;28;7166;-73
2023/03/01 06:32:44;;;;;;;;;;;;;;;0.33;51.59;101710.72;5009457;28;6958;-73
2023/03/01 06:35:13;;;;;;;;;;;;;;;0.32;51.80;101707.34;5019563;28;6959;-72
2023/03/01 06:37:41;;;;;;;;;;;;;;;0.33;51.95;101699.03;5009373;28;7245;-74
2023/03/01 06:40:10;;;;;;;;;;;;;;;0.34;51.43;101693.25;5012000;28;7008;-74
2023/03/01 06:42:38;;;;;;;;;;;;;;;0.34;51.38;101695.78;5011455;28;7235;-73
2023/03/01 06:45:06;;;;;;;;;;;;;;;0.36;51.44;101693.44;5010480;28;7023;-73
2023/03/01 06:47:33;;;;;;;;;;;;;;;0.36;51.99;101701.88;5011923;28;6864;-72
2023/03/01 06:50:00;;;;;;;;;;;;;;;0.38;51.76;101702.94;5028062;28;6984;-73
2023/03/01 06:52:26;;;;;;;;;;;;;;;0.38;52.21;101705.47;5010615;28;6784;-75
2023/03/01 06:54:52;;;;;;;;;;;;;;;0.44;52.38;101712.84;5013453;28;6975;-72
2023/03/01 06:57:17;;;;;;;;;;;;;;;0.47;51.89;101704.69;5004996;28;6771;-73
2023/03/01 06:59:43;;;;;;;;;;;;;;;0.50;52.22;101710.97;5022305;28;7213;-74
2023/03/01 07:02:13;;;;;;;;;;;;;;;0.55;52.29;101711.47;5011272;28;6925;-74
2023/03/01 07:04:39;;;;;;;;;;;;;;;0.60;52.23;101705.31;5008364;28;7247;-74
2023/03/01 07:07:05;;;;;;;;;;;;;;;0.63;52.14;101705.63;4992415;28;8336;-73
2023/03/01 07:09:31;;;;;;;;;;;;;;;0.67;52.08;101702.69;5022305;28;7280;-73
2023/03/01 07:11:57;;;;;;;;;;;;;;;0.72;52.01;101704.84;5009709;28;6835;-73
2023/03/01 07:14:26;;;;;;;;;;;;;;;0.76;52.09;101699.38;5011972;28;7261;-73
2023/03/01 07:16:53;;;;;;;;;;;;;;;0.79;52.09;101698.09;5010737;28;8943;-74
2023/03/01 07:19:19;;;;;;;;;;;;;;;0.86;51.84;101701.28;5029444;28;6784;-74
2023/03/01 07:21:44;;;;;;;;;;;;;;;0.91;52.43;101698.53;5007303;28;6808;-73
2023/03/01 07:24:10;;;;;;;;;;;;;;;0.99;52.11;101703.50;5004882;28;7496;-75
2023/03/01 07:26:37;;;;;;;;;;;;;;;1.05;52.75;101704.16;5005186;28;6768;-74
2023/03/01 07:29:06;;;;;;;;;;;;;;;1.13;52.33;101703.34;5008722;28;6847;-74
2023/03/01 07:31:33;;;;;;;;;;;;;;;1.20;52.34;101700.75;5009629;28;6808;-74
2023/03/01 07:33:58;;;;;;;;;;;;;;;1.28;52.22;101700.69;5012322;28;6958;-74
2023/03/01 07:36:25;;;;;;;;;;;;;;;1.36;52.56;101704.91;5009186;28;6771;-74
2023/03/01 07:38:51;;;;;;;;;;;;;;;1.44;52.33;101696.50;5010288;28;8078;-74
2023/03/01 07:41:17;;;;;;;;;;;;;;;1.50;52.12;101696.28;5028170;28;7089;-74
2023/03/01 07:43:43;;;;;;;;;;;;;;;1.59;51.89;101698.84;5013038;28;7232;-74
2023/03/01 07:46:09;;;;;;;;;;;;;;;1.66;52.52;101694.59;4988891;28;8412;-75
2023/03/01 07:48:35;;;;;;;;;;;;;;;1.73;52.53;101691.06;5005283;28;8833;-75
2023/03/01 07:51:05;;;;;;;;;;;;;;;1.81;51.89;101694.41;5009384;28;7439;-75
2023/03/01 07:53:33;;;;;;;;;;;;;;;1.90;52.29;101694.47;5009286;28;6998;-73
2023/03/01 07:56:08;;;;;;;;;;;;;;;1.99;52.70;101687.81;5004377;28;7238;-74
2023/03/01 07:58:41;;;;;;;;;;;;;;;2.07;52.50;101697.09;5019746;28;6807;-74
2023/03/01 08:01:10;;;;;;;;;;;;;;;2.17;52.06;101685.41;5028470;28;6864;-73
2023/03/01 08:03:37;;;;;;;;;;;;;;;2.27;52.34;101687.22;5011004;28;7023;-74
2023/03/01 08:06:07;;;;;;;;;;;;;;;2.35;52.15;101689.81;5012708;28;6812;-73
2023/03/01 08:08:33;;;;;;;;;;;;;;;2.44;51.87;101691.50;5024954;28;6823;-73
2023/03/01 08:11:02;;;;;;;;;;;;;;;2.51;52.13;101686.28;5010298;28;7212;-74
2023/03/01 08:13:29;;;;;;;;;;;;;;;2.59;52.56;101689.63;4999211;28;6846;-74
2023/03/01 08:16:00;;;;;;;;;;;;;;;2.69;51.58;101681.28;5010462;28;6938;-74
2023/03/01 08:18:25;;;;;;;;;;;;;;;2.77;52.77;101685.50;5024513;28;7269;-74
2023/03/01 08:20:51;;;;;;;;;;;;;;;2.84;52.08;101682.84;5011454;28;6966;-74
2023/03/01 08:23:17;;;;;;;;;;;;;;;2.94;51.82;101673.63;5000808;28;7208;-75
2023/03/01 08:25:42;;;;;;;;;;;;;;;3.01;52.22;101676.03;5011135;28;8396;-73
2023/03/01 08:28:08;;;;;;;;;;;;;;;3.08;52.01;101678.41;5016446;28;6950;-75
2023/03/01 08:30:34;;;;;;;;;;;;;;;3.15;52.05;101673.19;5003363;28;6951;-74
2023/03/01 08:32:59;;;;;;;;;;;;;;;3.25;51.53;101671.56;4993621;28;7181;-75
2023/03/01 08:35:25;;;;;;;;;;;;;;;3.34;52.60;101672.47;5007100;28;6950;-73
2023/03/01 08:37:51;;;;;;;;;;;;;;;3.44;51.53;101670.06;5011158;28;7880;-73
2023/03/01 08:40:16;;;;;;;;;;;;;;;3.57;51.57;101671.25;5029193;28;6847;-75
2023/03/01 08:42:42;;;;;;;;;;;;;;;3.64;51.47;101665.16;5010549;28;6998;-74
2023/03/01 08:45:10;;;;;;;;;;;;;;;3.74;51.58;101671.25;4991605;28;8503;-73
2023/03/01 08:47:36;;;;;;;;;;;;;;;3.85;51.63;101672.28;5009967;28;6844;-73
2023/03/01 08:50:02;;;;;;;;;;;;;;;3.96;51.79;101678.41;5024138;28;8003;-75
2023/03/01 08:52:29;;;;;;;;;;;;;;;4.06;51.72;101670.00;5002106;28;7670;-73
2023/03/01 08:54:56;;;;;;;;;;;;;;;4.17;51.61;101665.94;5003907;28;6788;-73
2023/03/01 08:57:22;;;;;;;;;;;;;;;4.26;51.35;101653.22;5004662;28;7122;-74
2023/03/01 08:59:47;;;;;;;;;;;;;;;4.35;50.59;101648.13;5026416;28;7263;-74
2023/03/01 09:02:17;;;;;;;;;;;;;;;4.45;51.08;101646.56;4995374;28;7401;-74
2023/03/01 09:04:44;;;;;;;;;;;;;;;4.53;50.50;101648.91;4995629;28;6978;-74
2023/03/01 09:07:10;;;;;;;;;;;;;;;4.62;50.65;101646.31;5012200;28;6848;-75
2023/03/01 09:09:36;;;;;;;;;;;;;;;4.71;50.12;101653.16;5005006;28;7239;-74
2023/03/01 09:12:03;;;;;;;;;;;;;;;4.82;50.15;101651.56;5009941;28;6868;-74
2023/03/01 09:14:30;;;;;;;;;;;;;;;4.93;49.75;101644.94;5010014;28;7219;-75
2023/03/01 09:16:55;;;;;;;;;;;;;;;5.02;49.46;101647.41;5004645;28;7841;-74
2023/03/01 09:19:21;;;;;;;;;;;;;;;5.12;49.46;101661.84;5008839;28;6788;-75
2023/03/01 09:21:52;;;;;;;;;;;;;;;5.17;48.83;101652.09;4991300;28;7391;-75
2023/03/01 09:24:21;;;;;;;;;;;;;;;5.24;48.45;101654.44;5009983;28;7294;-74
2023/03/01 09:26:48;;;;;;;;;;;;;;;5.30;48.97;101649.03;5021912;28;6965;-74
2023/03/01 09:29:15;;;;;;;;;;;;;;;5.38;48.39;101645.50;5006360;28;7223;-75
2023/03/01 09:31:42;;;;;;;;;;;;;;;5.47;48.62;101647.97;4991710;28;7002;-75
2023/03/01 09:34:08;;;;;;;;;;;;;;;5.57;48.38;101645.47;5006761;28;8305;-74
2023/03/01 09:36:34;;;;;;;;;;;;;;;5.64;48.00;101645.28;5009764;28;6844;-75
2023/03/01 09:39:00;;;;;;;;;;;;;;;5.75;48.16;101635.13;5012534;28;6936;-74
2023/03/01 09:41:45;;;;;;;;;;;;;;;5.84;48.03;101638.50;5030957;28;8065;-74
2023/03/01 09:44:31;;;;;;;;;;;;;;;5.96;47.67;101636.13;5011561;28;7071;-74
2023/03/01 09:46:57;;;;;;;;;;;;;;;6.02;47.09;101633.25;5011535;28;6843;-75
2023/03/01 09:49:36;;;;;;;;;;;;;;;6.06;46.95;101632.72;5023852;28;6933;-75
2023/03/01 09:52:41;;;;;;;;;;;;;;;6.10;46.51;101632.25;5012944;28;7076;-75
2023/03/01 09:55:15;;;;;;;;;;;;;;;6.14;46.51;101626.66;5014082;28;7774;-76
2023/03/01 09:58:24;;;;;;;;;;;;;;;6.22;46.35;101625.66;5011764;28;7369;-75
2023/03/01 10:00:50;;;;;;;;;;;;;;;6.29;46.07;101626.19;5010652;28;8289;-75
2023/03/01 10:03:30;;;;;;;;;;;;;;;6.33;45.78;101628.22;5028503;28;7209;-75
2023/03/01 10:06:11;;;;;;;;;;;;;;;6.36;45.68;101618.28;5012411;28;6812;-75
2023/03/01 10:08:52;;;;;;;;;;;;;;;6.42;45.72;101607.72;4989589;28;7008;-76
2023/03/01 10:11:44;;;;;;;;;;;;;;;6.50;45.89;101610.16;5010641;28;6823;-74
2023/03/01 10:14:44;;;;;;;;;;;;;;;6.63;45.26;101616.28;5013977;28;7071;-75
2023/03/01 10:17:37;;;;;;;;;;;;;;;6.70;45.00;101604.94;5012402;28;6808;-74
2023/03/01 10:20:22;;;;;;;;;;;;;;;6.79;45.40;101606.59;5015195;28;7884;-74
2023/03/01 10:22:52;;;;;;;;;;;;;;;6.91;44.80;101601.63;5003785;28;7257;-75
2023/03/01 10:25:38;;;;;;;;;;;;;;;7.06;45.41;101590.91;5015139;28;6824;-74
2023/03/01 10:28:42;;;;;;;;;;;;;;;7.42;45.63;101594.63;5014160;28;6784;-74
2023/03/01 10:31:18;;;;;;;;;;;;;;;8.23;44.90;101597.44;5001874;28;8532;-75
2023/03/01 10:33:44;;;;;;;;;;;;;;;9.19;43.36;101589.22;5019069;28;6835;-75
2023/03/01 10:36:09;;;;;;;;;;;;;;;10.26;42.44;101588.97;5025039;28;7551;-76
2023/03/01 10:38:54;;;;;;;;;;;;;;;11.44;40.50;101569.25;5013878;28;7172;-76
2023/03/01 10:41:23;;;;;;;;;;;;;;;12.41;39.74;101561.47;5012279;28;7311;-75
2023/03/01 10:44:00;;;;;;;;;;;;;;;13.24;37.58;101554.13;5016231;28;6800;-75
2023/03/01 10:46:31;;;;;;;;;;;;;;;13.96;36.27;101553.72;5015516;28;6811;-75
2023/03/01 10:49:20;;;;;;;;;;;;;;;14.72;35.25;101538.63;5011376;28;6836;-75
2023/03/01 10:51:50;;;;;;;;;;;;;;;15.26;35.19;101530.88;5024175;28;7206;-76
2023/03/01 10:54:25;;;;;;;;;;;;;;;15.69;34.28;101531.97;5008350;28;7317;-75
2023/03/01 10:57:03;;;;;;;;;;;;;;;16.12;33.47;101526.94;5011504;28;7299;-77
2023/03/01 10:59:33;;;;;;;;;;;;;;;16.60;33.31;101528.06;5014564;28;6827;-75
2023/03/01 11:02:28;;;;;;;;;;;;;;;17.01;31.96;101521.16;5026840;28;7156;-76
2023/03/01 11:04:58;;;;;;;;;;;;;;;17.20;31.22;101517.56;5010938;28;7248;-75
2023/03/01 11:07:24;;;;;;;;;;;;;;;17.42;31.04;101513.19;5010818;28;7158;-75
2023/03/01 11:09:49;;;;;;;;;;;;;;;17.71;30.67;101515.09;5010765;28;6978;-75
2023/03/01 11:12:17;;;;;;;;;;;;;;;17.86;29.96;101510.44;5004093;28;6764;-75
2023/03/01 11:14:53;;;;;;;;;;;;;;;18.00;30.05;101508.34;5007673;28;6816;-75
2023/03/01 11:17:30;;;;;;;;;;;;;;;18.19;30.02;101498.63;5011317;28;7310;-76
2023/03/01 11:20:18;;;;;;;;;;;;;;;18.24;29.42;101491.00;5005113;28;7074;-74
2023/03/01 11:23:12;;;;;;;;;;;;;;;18.08;29.13;101490.50;5006480;28;9262;-77
2023/03/01 11:25:44;;;;;;;;;;;;;;;17.90;28.62;101493.28;5027383;28;7016;-77
2023/03/01 11:28:17;;;;;;;;;;;;;;;17.88;28.95;101492.34;5010497;28;6973;-77
2023/03/01 11:31:05;;;;;;;;;;;;;;;17.86;28.58;101489.69;5016269;28;6986;-77
2023/03/01 11:33:46;;;;;;;;;;;;;;;17.66;28.44;101486.41;5011948;28;6792;-77
2023/03/01 11:36:35;;;;;;;;;;;;;;;17.77;29.18;101484.22;5014788;28;6815;-77
2023/03/01 11:39:53;;;;;;;;;;;;;;;18.14;28.92;101480.31;5006708;28;7117;-77
2023/03/01 11:42:42;;;;;;;;;;;;;;;18.60;27.70;101480.09;5012893;28;7010;-77
2023/03/01 11:45:12;;;;;;;;;;;;;;;18.62;27.53;101482.75;5010373;28;7114;-77
2023/03/01 11:48:09;;;;;;;;;;;;;;;18.51;27.70;101470.31;5023488;28;7238;-74
2023/03/01 11:50:58;;;;;;;;;;;;;;;18.59;26.89;101470.53;5015111;28;6982;-76
2023/03/01 11:53:50;;;;;;;;;;;;;;;18.51;27.37;101475.50;5010881;28;6819;-75
2023/03/01 11:56:33;;;;;;;;;;;;;;;18.40;27.09;101467.34;5012578;28;6820;-74
2023/03/01 11:59:28;;;;;;;;;;;;;;;18.51;27.20;101469.41;5018386;28;6803;-75
2023/03/01 12:02:18;;;;;;;;;;;;;;;18.77;26.48;101469.38;5004138;28;7297;-74
2023/03/01 12:05:14;;;;;;;;;;;;;;;18.92;26.22;101455.97;4970985;28;6831;-75
2023/03/01 12:08:17;;;;;;;;;;;;;;;19.24;26.75;101456.97;4999839;28;7949;-75
2023/03/01 12:11:15;;;;;;;;;;;;;;;19.33;25.60;101447.66;4992452;28;6832;-75
2023/03/01 12:14:20;;;;;;;;;;;;;;;19.29;25.90;101442.38;5003591;28;6820;-76
2023/03/01 12:17:10;;;;;;;;;;;;;;;19.22;25.09;101439.56;4993025;28;7114;-75
2023/03/01 12:20:13;;;;;;;;;;;;;;;19.19;25.33;101439.47;4988238;28;7151;-75
2023/03/01 12:23:08;;;;;;;;;;;;;;;19.06;25.31;101438.22;4987739;28;6882;-78
2023/03/01 12:25:59;;;;;;;;;;;;;;;18.67;25.17;101434.41;5000689;28;7452;-76
2023/03/01 12:28:37;;;;;;;;;;;;;;;18.22;26.00;101431.31;4995853;28;6827;-76
2023/03/01 12:31:32;;;;;;;;;;;;;;;18.12;26.31;101435.28;5013932;28;7742;-77
2023/03/01 12:34:43;;;;;;;;;;;;;;;17.72;25.68;101429.63;5025906;28;6815;-78
2023/03/01 12:37:23;;;;;;;;;;;;;;;16.45;26.54;101430.00;5014969;28;6835;-76
2023/03/01 12:40:31;;;;;;;;;;;;;;;15.05;27.58;101435.22;5031552;28;6974;-77
2023/03/01 12:43:09;;;;;;;;;;;;;;;13.83;29.21;101435.34;5014961;28;7014;-76
2023/03/01 12:45:53;;;;;;;;;;;;;;;13.01;29.25;101435.38;5016436;28;6948;-76
2023/03/01 12:48:40;;;;;;;;;;;;;;;12.44;29.90;101422.81;5018845;28;6808;-77
2023/03/01 12:51:13;;;;;;;;;;;;;;;12.01;30.60;101428.91;5013453;28;6875;-77
2023/03/01 12:53:47;;;;;;;;;;;;;;;11.70;30.86;101424.53;4999168;28;7397;-77
2023/03/01 12:56:23;;;;;;;;;;;;;;;11.47;31.41;101426.56;5005525;28;8141;-77
2023/03/01 12:59:15;;;;;;;;;;;;;;;11.26;31.35;101413.34;5012976;28;6808;-76
2023/03/01 13:02:00;;;;;;;;;;;;;;;11.08;31.55;101410.50;5012832;28;7010;-77
2023/03/01 13:04:54;;;;;;;;;;;;;;;10.97;31.73;101417.56;5012952;28;6799;-75
2023/03/01 13:08:03;;;;;;;;;;;;;;;10.89;32.05;101422.19;5013765;28;6993;-77
2023/03/01 13:10:58;;;;;;;;;;;;;;;10.83;31.84;101406.41;5009384;28;7193;-76
2023/03/01 13:13:28;;;;;;;;;;;;;;;10.77;31.97;101399.22;5008815;28;6968;-76
2023/03/01 13:15:55;;;;;;;;;;;;;;;10.73;31.91;101406.63;5002054;28;7071;-76
2023/03/01 13:18:25;;;;;;;;;;;;;;;10.66;31.71;101405.31;5009014;28;6791;-77
2023/03/01 13:20:54;;;;;;;;;;;;;;;10.64;32.16;101397.56;5013344;28;6812;-75
2023/03/01 13:23:20;;;;;;;;;;;;;;;10.64;32.29;101392.44;5007847;28;6984;-76
2023/03/01 13:26:12;;;;;;;;;;;;;;;10.66;32.62;101389.94;5026607;28;6959;-77
2023/03/01 13:28:48;;;;;;;;;;;;;;;10.67;32.62;101391.72;5014306;28;7314;-77